createdAt,value
2018-12-29T00:00:19.609Z,11.70
2018-12-29T00:00:57.499Z,11.57
2018-12-29T00:01:33.587Z,11.30
2018-12-29T00:02:12.068Z,11.00
2018-12-29T00:02:48.525Z,10.60
2018-12-29T00:03:25.089Z,11.48
2018-12-29T00:04:01.371Z,10.68
2018-12-29T00:04:37.719Z,12.00
2018-12-29T00:05:14.113Z,11.45
2018-12-29T00:05:50.843Z,11.83
2018-12-29T00:06:27.313Z,10.70
2018-12-29T00:07:03.653Z,10.25
2018-12-29T00:07:40.125Z,12.55
2018-12-29T00:08:16.404Z,11.15
2018-12-29T00:08:52.700Z,12.10
2018-12-29T00:09:28.877Z,12.07
2018-12-29T00:10:05.385Z,11.10
2018-12-29T00:10:41.778Z,11.45
2018-12-29T00:11:18.164Z,10.08
2018-12-29T00:11:54.593Z,11.10
2018-12-29T00:12:31.067Z,10.70
2018-12-29T00:13:07.624Z,12.10
2018-12-29T00:13:43.994Z,11.60
2018-12-29T00:14:20.623Z,10.88
2018-12-29T00:14:57.030Z,11.03
2018-12-29T00:15:33.408Z,10.65
2018-12-29T00:16:09.509Z,11.20
2018-12-29T00:16:45.733Z,10.88
2018-12-29T00:17:22.370Z,11.93
2018-12-29T00:17:58.694Z,11.30
2018-12-29T00:18:34.949Z,11.35
2018-12-29T00:19:11.266Z,13.15
2018-12-29T00:19:47.533Z,11.63
2018-12-29T00:20:23.713Z,10.68
2018-12-29T00:20:59.847Z,13.13
2018-12-29T00:21:36.374Z,11.25
2018-12-29T00:22:12.377Z,11.78
2018-12-29T00:22:48.593Z,11.95
2018-12-29T00:23:25.035Z,10.32
2018-12-29T00:24:01.476Z,10.85
2018-12-29T00:24:37.843Z,10.90
2018-12-29T00:25:14.247Z,11.22
2018-12-29T00:25:50.452Z,11.33
2018-12-29T00:26:26.808Z,10.90
2018-12-29T00:27:03.209Z,12.13
2018-12-29T00:27:39.759Z,10.78
2018-12-29T00:28:16.036Z,11.25
2018-12-29T00:28:52.365Z,12.05
2018-12-29T00:29:28.950Z,11.43
2018-12-29T00:30:06.153Z,13.45
2018-12-29T00:30:42.478Z,10.60
2018-12-29T00:31:18.743Z,11.75
2018-12-29T00:31:54.976Z,10.88
2018-12-29T00:32:31.592Z,12.03
2018-12-29T00:33:07.826Z,11.68
2018-12-29T00:33:44.197Z,12.30
2018-12-29T00:34:20.280Z,11.75
2018-12-29T00:34:56.579Z,9.88
2018-12-29T00:35:32.878Z,12.33
2018-12-29T00:36:09.239Z,11.83
2018-12-29T00:36:46.628Z,11.10
2018-12-29T00:37:23.121Z,11.12
2018-12-29T00:37:59.496Z,12.05
2018-12-29T00:38:36.098Z,11.90
2018-12-29T00:39:12.282Z,12.45
2018-12-29T00:39:48.836Z,10.93
2018-12-29T00:40:25.250Z,12.60
2018-12-29T00:41:01.325Z,11.65
2018-12-29T00:41:37.708Z,13.83
2018-12-29T00:42:14.184Z,11.25
2018-12-29T00:42:51.385Z,13.08
2018-12-29T00:43:27.513Z,11.65
2018-12-29T00:44:03.985Z,12.93
2018-12-29T00:44:40.043Z,13.88
2018-12-29T00:45:16.587Z,12.63
2018-12-29T00:45:52.888Z,13.65
2018-12-29T00:46:29.388Z,12.45
2018-12-29T00:47:05.720Z,12.10
2018-12-29T00:47:42.089Z,13.10
2018-12-29T00:48:18.502Z,14.40
2018-12-29T00:48:54.781Z,14.20
2018-12-29T00:49:31.272Z,12.45
2018-12-29T00:50:07.653Z,12.58
2018-12-29T00:50:43.864Z,12.85
2018-12-29T00:51:20.117Z,12.30
2018-12-29T00:51:56.473Z,11.93
2018-12-29T00:52:32.684Z,11.78
2018-12-29T00:53:09.124Z,13.72
2018-12-29T00:53:45.448Z,13.00
2018-12-29T00:54:21.824Z,11.55
2018-12-29T00:54:58.280Z,13.00
2018-12-29T00:55:34.646Z,11.80
2018-12-29T00:56:11.059Z,13.18
2018-12-29T00:56:47.581Z,12.65
2018-12-29T00:57:23.828Z,11.60
2018-12-29T00:58:00.437Z,14.05
2018-12-29T00:58:37.087Z,13.28
2018-12-29T00:59:13.598Z,11.40
2018-12-29T00:59:49.797Z,14.15
2018-12-29T01:00:26.240Z,13.38
2018-12-29T01:01:02.451Z,11.78
2018-12-29T01:01:38.598Z,12.35
2018-12-29T01:02:15.159Z,13.28
2018-12-29T01:02:51.571Z,13.65
2018-12-29T01:03:27.992Z,12.33
2018-12-29T01:04:04.429Z,13.00
2018-12-29T01:04:40.914Z,12.80
2018-12-29T01:05:17.151Z,13.55
2018-12-29T01:05:53.560Z,12.63
2018-12-29T01:06:30.015Z,11.97
2018-12-29T01:07:06.295Z,11.93
2018-12-29T01:07:42.816Z,13.22
2018-12-29T01:08:19.148Z,12.07
2018-12-29T01:08:55.303Z,11.80
2018-12-29T01:09:31.518Z,12.70
2018-12-29T01:10:07.934Z,13.20
2018-12-29T01:10:44.245Z,13.18
2018-12-29T01:11:20.267Z,14.13
2018-12-29T01:11:56.240Z,11.73
2018-12-29T01:12:32.787Z,13.40
2018-12-29T01:13:08.861Z,12.98
2018-12-29T01:13:45.308Z,11.68
2018-12-29T01:14:21.622Z,13.20
2018-12-29T01:14:57.651Z,12.10
2018-12-29T01:15:33.963Z,12.30
2018-12-29T01:16:10.504Z,15.20
2018-12-29T01:16:47.129Z,13.83
2018-12-29T01:17:23.825Z,10.95
2018-12-29T01:18:00.327Z,12.03
2018-12-29T01:18:36.510Z,13.53
2018-12-29T01:19:12.859Z,13.90
2018-12-29T01:19:49.060Z,12.23
2018-12-29T01:20:25.451Z,12.85
2018-12-29T01:21:02.020Z,13.18
2018-12-29T01:21:38.307Z,13.88
2018-12-29T01:22:14.712Z,12.40
2018-12-29T01:22:51.344Z,13.10
2018-12-29T01:23:28.148Z,12.70
2018-12-29T01:24:04.477Z,14.33
2018-12-29T01:24:40.926Z,13.65
2018-12-29T01:25:17.376Z,12.93
2018-12-29T01:25:53.817Z,13.03
2018-12-29T01:26:30.239Z,12.78
2018-12-29T01:27:06.569Z,12.45
2018-12-29T01:27:43.352Z,11.68
2018-12-29T01:28:20.557Z,12.10
2018-12-29T01:28:58.062Z,12.75
2018-12-29T01:29:34.390Z,13.40
2018-12-29T01:30:10.872Z,12.60
2018-12-29T01:30:47.351Z,11.30
2018-12-29T01:31:23.823Z,11.22
2018-12-29T01:31:59.923Z,11.53
2018-12-29T01:32:36.351Z,14.18
2018-12-29T01:33:12.739Z,12.70
2018-12-29T01:33:49.358Z,13.13
2018-12-29T01:34:25.585Z,12.90
2018-12-29T01:35:01.963Z,11.83
2018-12-29T01:35:38.197Z,10.95
2018-12-29T01:36:14.584Z,12.70
2018-12-29T01:36:51.388Z,12.85
2018-12-29T01:37:27.779Z,12.25
2018-12-29T01:38:03.983Z,12.50
2018-12-29T01:38:40.176Z,13.53
2018-12-29T01:39:16.584Z,12.15
2018-12-29T01:39:53.155Z,12.13
2018-12-29T01:40:29.976Z,12.35
2018-12-29T01:41:06.208Z,12.90
2018-12-29T01:41:42.968Z,14.70
2018-12-29T01:42:19.576Z,11.18
2018-12-29T01:42:55.919Z,12.65
2018-12-29T01:43:32.234Z,11.35
2018-12-29T01:44:08.463Z,12.50
2018-12-29T01:44:44.734Z,14.23
2018-12-29T01:45:22.032Z,12.45
2018-12-29T01:45:58.388Z,12.50
2018-12-29T01:46:34.855Z,12.95
2018-12-29T01:47:11.442Z,12.75
2018-12-29T01:47:48.090Z,13.15
2018-12-29T01:48:24.728Z,12.53
2018-12-29T01:49:01.677Z,12.40
2018-12-29T01:49:38.201Z,12.00
2018-12-29T01:50:14.321Z,11.73
2018-12-29T01:50:50.649Z,12.63
2018-12-29T01:51:27.150Z,12.00
2018-12-29T01:52:03.456Z,11.00
2018-12-29T01:52:39.872Z,12.10
2018-12-29T01:53:16.143Z,12.40
2018-12-29T01:53:52.409Z,12.45
2018-12-29T01:54:28.666Z,13.58
2018-12-29T01:55:05.125Z,13.75
2018-12-29T01:55:41.371Z,12.80
2018-12-29T01:56:17.996Z,12.47
2018-12-29T01:56:54.338Z,12.15
2018-12-29T01:57:30.498Z,11.97
2018-12-29T01:58:07.109Z,13.30
2018-12-29T01:58:43.559Z,12.13
2018-12-29T01:59:19.961Z,12.15
2018-12-29T01:59:56.593Z,12.45
2018-12-29T02:00:32.979Z,12.73
2018-12-29T02:01:09.192Z,13.00
2018-12-29T02:01:45.462Z,12.15
2018-12-29T02:02:21.967Z,11.93
2018-12-29T02:02:58.502Z,11.55
2018-12-29T02:03:34.820Z,12.28
2018-12-29T02:04:11.510Z,12.80
2018-12-29T02:04:47.473Z,10.98
2018-12-29T02:05:23.874Z,12.00
2018-12-29T02:06:00.059Z,12.18
2018-12-29T02:06:36.449Z,12.55
2018-12-29T02:07:12.790Z,11.83
2018-12-29T02:07:48.844Z,11.90
2018-12-29T02:08:25.169Z,12.23
2018-12-29T02:09:01.606Z,13.13
2018-12-29T02:09:38.272Z,11.53
2018-12-29T02:10:15.137Z,13.03
2018-12-29T02:10:51.403Z,10.80
2018-12-29T02:11:28.004Z,11.55
2018-12-29T02:12:04.524Z,12.23
2018-12-29T02:12:41.014Z,12.10
2018-12-29T02:13:17.103Z,13.10
2018-12-29T02:13:53.674Z,12.82
2018-12-29T02:14:29.916Z,10.82
2018-12-29T02:15:06.465Z,12.60
2018-12-29T02:15:42.905Z,12.30
2018-12-29T02:16:19.166Z,13.30
2018-12-29T02:16:56.029Z,11.25
2018-12-29T02:17:32.177Z,11.38
2018-12-29T02:18:08.636Z,12.70
2018-12-29T02:18:44.988Z,12.60
2018-12-29T02:19:21.372Z,12.63
2018-12-29T02:19:57.797Z,11.85
2018-12-29T02:20:34.114Z,12.68
2018-12-29T02:21:10.573Z,12.18
2018-12-29T02:21:46.843Z,12.25
2018-12-29T02:22:23.168Z,12.23
2018-12-29T02:22:59.890Z,12.20
2018-12-29T02:23:36.180Z,12.18
2018-12-29T02:24:12.729Z,13.20
2018-12-29T02:24:49.171Z,11.18
2018-12-29T02:25:25.581Z,10.80
2018-12-29T02:26:01.890Z,13.50
2018-12-29T02:26:38.883Z,13.18
2018-12-29T02:27:16.260Z,12.00
2018-12-29T02:27:52.691Z,12.47
2018-12-29T02:28:29.116Z,12.85
2018-12-29T02:29:05.474Z,12.65
2018-12-29T02:29:42.255Z,13.60
2018-12-29T02:30:18.664Z,12.55
2018-12-29T02:30:54.920Z,13.58
2018-12-29T02:31:31.503Z,12.10
2018-12-29T02:32:07.771Z,12.18
2018-12-29T02:32:44.245Z,11.95
2018-12-29T02:33:20.553Z,12.93
2018-12-29T02:33:57.364Z,12.73
2018-12-29T02:34:33.964Z,13.48
2018-12-29T02:35:10.192Z,12.00
2018-12-29T02:35:46.732Z,12.90
2018-12-29T02:36:22.981Z,11.25
2018-12-29T02:36:59.506Z,12.65
2018-12-29T02:37:36.434Z,13.70
2018-12-29T02:38:12.655Z,13.10
2018-12-29T02:38:49.306Z,12.20
2018-12-29T02:39:25.937Z,12.75
2018-12-29T02:40:02.407Z,14.78
2018-12-29T02:40:38.596Z,14.68
2018-12-29T02:41:15.083Z,13.98
2018-12-29T02:41:51.234Z,12.98
2018-12-29T02:42:27.598Z,13.03
2018-12-29T02:43:04.409Z,13.75
2018-12-29T02:43:40.629Z,12.93
2018-12-29T02:44:16.958Z,12.43
2018-12-29T02:44:53.315Z,12.95
2018-12-29T02:45:33.331Z,12.50
2018-12-29T02:46:07.556Z,15.03
2018-12-29T02:46:44.046Z,13.70
2018-12-29T02:47:20.618Z,13.25
2018-12-29T02:47:57.355Z,14.13
2018-12-29T02:48:33.818Z,13.88
2018-12-29T02:49:10.098Z,15.18
2018-12-29T02:49:46.476Z,13.85
2018-12-29T02:50:22.849Z,14.40
2018-12-29T02:50:59.137Z,14.83
2018-12-29T02:51:35.486Z,15.30
2018-12-29T02:52:11.715Z,15.63
2018-12-29T02:52:48.262Z,13.88
2018-12-29T02:53:24.997Z,14.70
2018-12-29T02:54:01.260Z,16.17
2018-12-29T02:54:37.529Z,14.30
2018-12-29T02:55:13.834Z,14.73
2018-12-29T02:55:50.652Z,16.60
2018-12-29T02:56:27.217Z,15.85
2018-12-29T02:57:03.714Z,15.75
2018-12-29T02:57:40.106Z,16.45
2018-12-29T02:58:16.547Z,14.65
2018-12-29T02:58:52.983Z,14.70
2018-12-29T02:59:29.433Z,14.75
2018-12-29T03:00:05.881Z,15.58
2018-12-29T03:00:42.314Z,14.87
2018-12-29T03:01:18.915Z,14.43
2018-12-29T03:01:55.178Z,14.75
2018-12-29T03:02:31.210Z,16.37
2018-12-29T03:03:07.554Z,16.35
2018-12-29T03:03:44.069Z,15.68
2018-12-29T03:04:20.558Z,15.50
2018-12-29T03:04:56.952Z,15.32
2018-12-29T03:05:33.176Z,15.30
2018-12-29T03:06:09.465Z,14.95
2018-12-29T03:06:45.900Z,15.98
2018-12-29T03:07:22.361Z,15.98
2018-12-29T03:07:58.762Z,15.00
2018-12-29T03:08:35.362Z,16.52
2018-12-29T03:09:11.547Z,14.73
2018-12-29T03:09:48.133Z,15.23
2018-12-29T03:10:24.845Z,16.17
2018-12-29T03:11:01.113Z,15.25
2018-12-29T03:11:37.681Z,15.63
2018-12-29T03:12:14.217Z,15.15
2018-12-29T03:12:50.533Z,14.70
2018-12-29T03:13:26.926Z,15.45
2018-12-29T03:14:03.397Z,16.73
2018-12-29T03:14:39.720Z,15.93
2018-12-29T03:15:15.737Z,17.40
2018-12-29T03:15:52.303Z,15.53
2018-12-29T03:16:28.714Z,18.82
2018-12-29T03:17:04.914Z,16.12
2018-12-29T03:17:41.236Z,16.52
2018-12-29T03:18:17.769Z,17.57
2018-12-29T03:18:54.057Z,18.15
2018-12-29T03:19:31.543Z,16.32
2018-12-29T03:20:08.168Z,15.83
2018-12-29T03:20:44.814Z,17.70
2018-12-29T03:21:21.277Z,15.58
2018-12-29T03:21:57.556Z,15.78
2018-12-29T03:22:34.455Z,16.85
2018-12-29T03:23:11.098Z,17.10
2018-12-29T03:23:47.535Z,15.38
2018-12-29T03:24:23.695Z,18.65
2018-12-29T03:25:00.487Z,16.70
2018-12-29T03:25:36.949Z,16.80
2018-12-29T03:26:13.505Z,17.35
2018-12-29T03:26:50.144Z,17.48
2018-12-29T03:27:26.644Z,17.23
2018-12-29T03:28:03.375Z,16.97
2018-12-29T03:28:39.629Z,17.50
2018-12-29T03:29:16.125Z,16.67
2018-12-29T03:29:52.514Z,15.80
2018-12-29T03:30:28.706Z,16.95
2018-12-29T03:31:05.046Z,18.40
2018-12-29T03:31:41.261Z,18.10
2018-12-29T03:32:17.529Z,17.40
2018-12-29T03:32:53.826Z,16.23
2018-12-29T03:33:30.066Z,17.27
2018-12-29T03:34:06.582Z,16.12
2018-12-29T03:34:42.947Z,15.10
2018-12-29T03:35:19.615Z,16.62
2018-12-29T03:35:55.985Z,16.55
2018-12-29T03:36:32.224Z,16.80
2018-12-29T03:37:09.034Z,16.80
2018-12-29T03:37:45.302Z,18.98
2018-12-29T03:38:21.404Z,17.80
2018-12-29T03:38:58.865Z,17.55
2018-12-29T03:39:35.424Z,17.60
2018-12-29T03:40:11.898Z,16.40
2018-12-29T03:40:48.119Z,16.00
2018-12-29T03:41:24.413Z,17.05
2018-12-29T03:42:00.884Z,16.93
2018-12-29T03:42:37.613Z,14.60
2018-12-29T03:43:13.847Z,19.57
2018-12-29T03:43:49.922Z,13.48
2018-12-29T03:44:26.044Z,16.93
2018-12-29T03:45:02.152Z,16.10
2018-12-29T03:45:38.665Z,15.63
2018-12-29T03:46:15.315Z,15.50
2018-12-29T03:46:51.704Z,15.23
2018-12-29T03:47:28.215Z,16.20
2018-12-29T03:48:04.616Z,15.80
2018-12-29T03:48:40.944Z,16.27
2018-12-29T03:49:17.318Z,15.63
2018-12-29T03:49:53.755Z,14.70
2018-12-29T03:50:30.425Z,15.70
2018-12-29T03:51:06.674Z,16.80
2018-12-29T03:51:43.245Z,17.15
2018-12-29T03:52:19.615Z,16.73
2018-12-29T03:52:56.112Z,14.90
2018-12-29T03:53:32.627Z,15.68
2018-12-29T03:54:08.977Z,14.55
2018-12-29T03:54:45.367Z,15.25
2018-12-29T03:55:21.791Z,15.65
2018-12-29T03:55:58.256Z,16.32
2018-12-29T03:56:34.779Z,17.35
2018-12-29T03:57:11.297Z,15.65
2018-12-29T03:57:48.047Z,15.85
2018-12-29T03:58:27.808Z,15.95
2018-12-29T03:59:04.740Z,15.15
2018-12-29T03:59:41.507Z,17.32
2018-12-29T04:00:18.450Z,16.17
2018-12-29T04:00:55.052Z,15.05
2018-12-29T04:01:31.337Z,16.87
2018-12-29T04:02:07.862Z,15.93
2018-12-29T04:02:44.318Z,16.15
2018-12-29T04:03:20.520Z,16.77
2018-12-29T04:03:56.749Z,14.83
2018-12-29T04:04:33.048Z,15.72
2018-12-29T04:05:09.698Z,16.50
2018-12-29T04:05:46.022Z,15.05
2018-12-29T04:06:22.692Z,15.23
2018-12-29T04:06:58.992Z,14.87
2018-12-29T04:07:35.220Z,14.38
2018-12-29T04:08:11.812Z,15.90
2018-12-29T04:09:16.938Z,15.63
2018-12-29T04:09:53.284Z,14.58
2018-12-29T04:10:29.618Z,12.73
2018-12-29T04:11:06.171Z,15.90
2018-12-29T04:11:42.448Z,15.10
2018-12-29T04:12:18.979Z,14.63
2018-12-29T04:12:55.401Z,15.80
2018-12-29T04:13:31.809Z,15.05
2018-12-29T04:14:08.619Z,15.48
2018-12-29T04:14:45.378Z,16.05
2018-12-29T04:15:21.739Z,18.12
2018-12-29T04:15:58.525Z,15.15
2018-12-29T04:16:35.110Z,15.80
2018-12-29T04:17:11.689Z,12.80
2018-12-29T04:17:48.154Z,15.78
2018-12-29T04:18:24.883Z,14.10
2018-12-29T04:19:01.132Z,15.70
2018-12-29T04:19:37.871Z,14.75
2018-12-29T04:20:14.489Z,15.35
2018-12-29T04:20:50.842Z,14.63
2018-12-29T04:21:27.242Z,15.40
2018-12-29T04:22:03.732Z,14.20
2018-12-29T04:22:40.010Z,14.58
2018-12-29T04:23:16.729Z,14.28
2018-12-29T04:23:53.462Z,14.50
2018-12-29T04:24:30.081Z,16.05
2018-12-29T04:25:06.811Z,14.38
2018-12-29T04:25:42.814Z,15.25
2018-12-29T04:26:19.050Z,15.50
2018-12-29T04:26:55.589Z,17.12
2018-12-29T04:27:32.091Z,15.60
2018-12-29T04:28:08.718Z,14.60
2018-12-29T04:28:45.433Z,15.08
2018-12-29T04:29:21.753Z,14.53
2018-12-29T04:29:58.037Z,14.80
2018-12-29T04:30:34.441Z,17.27
2018-12-29T04:31:10.879Z,13.38
2018-12-29T04:31:47.345Z,15.30
2018-12-29T04:32:23.698Z,15.00
2018-12-29T04:32:59.904Z,17.27
2018-12-29T04:33:36.333Z,15.10
2018-12-29T04:34:12.491Z,16.07
2018-12-29T04:34:48.892Z,16.75
2018-12-29T04:35:25.453Z,14.87
2018-12-29T04:36:02.231Z,15.65
2018-12-29T04:36:38.868Z,15.63
2018-12-29T04:37:15.190Z,15.30
2018-12-29T04:37:51.900Z,14.85
2018-12-29T04:38:28.583Z,13.80
2018-12-29T04:39:06.411Z,14.40
2018-12-29T04:39:42.970Z,13.65
2018-12-29T04:40:19.339Z,14.53
2018-12-29T04:40:55.511Z,16.55
2018-12-29T04:41:31.765Z,14.93
2018-12-29T04:42:07.828Z,14.65
2018-12-29T04:42:44.449Z,16.62
2018-12-29T04:43:21.170Z,14.85
2018-12-29T04:43:57.552Z,16.15
2018-12-29T04:44:33.870Z,16.20
2018-12-29T04:45:10.397Z,16.05
2018-12-29T04:45:46.870Z,17.20
2018-12-29T04:46:23.320Z,14.47
2018-12-29T04:47:00.042Z,16.15
2018-12-29T04:47:36.461Z,15.78
2018-12-29T04:48:12.794Z,17.62
2018-12-29T04:48:48.960Z,15.90
2018-12-29T04:49:25.342Z,16.40
2018-12-29T04:50:01.546Z,15.15
2018-12-29T04:50:39.100Z,16.30
2018-12-29T04:51:15.331Z,15.43
2018-12-29T04:51:51.709Z,15.48
2018-12-29T04:52:27.985Z,16.25
2018-12-29T04:53:04.412Z,14.95
2018-12-29T04:53:40.803Z,16.30
2018-12-29T04:54:17.197Z,15.63
2018-12-29T04:54:53.372Z,16.52
2018-12-29T04:55:29.814Z,15.88
2018-12-29T04:56:06.553Z,14.50
2018-12-29T04:56:42.823Z,18.50
2018-12-29T04:57:19.264Z,15.72
2018-12-29T04:57:55.864Z,15.53
2018-12-29T04:58:32.611Z,14.78
2018-12-29T04:59:09.024Z,13.75
2018-12-29T04:59:46.524Z,14.50
2018-12-29T05:00:23.065Z,15.05
2018-12-29T05:00:59.520Z,14.70
2018-12-29T05:01:35.789Z,14.63
2018-12-29T05:02:12.190Z,15.28
2018-12-29T05:02:48.745Z,13.88
2018-12-29T05:03:25.101Z,14.45
2018-12-29T05:04:01.473Z,16.35
2018-12-29T05:04:37.798Z,14.45
2018-12-29T05:05:14.259Z,14.63
2018-12-29T05:05:50.416Z,14.70
2018-12-29T05:06:26.892Z,14.68
2018-12-29T05:07:03.281Z,15.83
2018-12-29T05:07:39.809Z,15.18
2018-12-29T05:08:17.099Z,15.38
2018-12-29T05:08:54.618Z,15.53
2018-12-29T05:09:31.163Z,14.80
2018-12-29T05:10:07.980Z,15.43
2018-12-29T05:10:44.412Z,15.25
2018-12-29T05:11:20.930Z,16.70
2018-12-29T05:11:57.581Z,15.23
2018-12-29T05:12:33.874Z,13.35
2018-12-29T05:13:10.499Z,16.93
2018-12-29T05:13:47.251Z,15.08
2018-12-29T05:14:23.570Z,14.87
2018-12-29T05:15:00.042Z,15.58
2018-12-29T05:15:36.402Z,14.40
2018-12-29T05:16:13.235Z,15.40
2018-12-29T05:16:49.681Z,15.25
2018-12-29T05:17:26.302Z,15.85
2018-12-29T05:18:02.721Z,15.30
2018-12-29T05:18:39.223Z,13.62
2018-12-29T05:19:15.958Z,13.72
2018-12-29T05:19:52.992Z,13.20
2018-12-29T05:20:29.555Z,14.73
2018-12-29T05:21:05.833Z,14.95
2018-12-29T05:21:42.384Z,15.08
2018-12-29T05:22:18.715Z,14.73
2018-12-29T05:22:54.813Z,13.80
2018-12-29T05:23:31.745Z,14.98
2018-12-29T05:24:08.417Z,14.68
2018-12-29T05:24:44.670Z,14.85
2018-12-29T05:25:21.465Z,14.93
2018-12-29T05:25:57.586Z,14.45
2018-12-29T05:26:34.026Z,14.63
2018-12-29T05:27:10.479Z,15.65
2018-12-29T05:27:46.867Z,15.60
2018-12-29T05:28:23.030Z,14.50
2018-12-29T05:28:59.547Z,15.98
2018-12-29T05:29:36.295Z,13.62
2018-12-29T05:30:12.898Z,14.03
2018-12-29T05:30:49.567Z,13.53
2018-12-29T05:31:25.790Z,15.10
2018-12-29T05:32:02.020Z,14.20
2018-12-29T05:32:38.311Z,13.20
2018-12-29T05:33:14.746Z,15.05
2018-12-29T05:33:51.119Z,14.10
2018-12-29T05:34:27.385Z,13.60
2018-12-29T05:35:03.996Z,14.05
2018-12-29T05:35:40.384Z,13.70
2018-12-29T05:36:17.015Z,12.90
2018-12-29T05:36:53.438Z,12.95
2018-12-29T05:37:30.103Z,13.95
2018-12-29T05:38:06.628Z,15.65
2018-12-29T05:38:42.922Z,14.73
2018-12-29T05:39:19.516Z,14.70
2018-12-29T05:39:56.024Z,13.62
2018-12-29T05:40:32.638Z,14.75
2018-12-29T05:41:08.823Z,13.35
2018-12-29T05:41:45.236Z,12.63
2018-12-29T05:42:21.672Z,13.62
2018-12-29T05:42:58.133Z,15.32
2018-12-29T05:43:34.577Z,14.47
2018-12-29T05:44:11.221Z,13.72
2018-12-29T05:44:47.913Z,15.53
2018-12-29T05:45:24.564Z,14.60
2018-12-29T05:46:01.073Z,15.88
2018-12-29T05:46:37.725Z,13.53
2018-12-29T05:47:14.437Z,15.15
2018-12-29T05:47:50.910Z,14.40
2018-12-29T05:48:27.606Z,14.40
2018-12-29T05:49:04.286Z,15.43
2018-12-29T05:49:40.684Z,15.23
2018-12-29T05:50:17.646Z,13.95
2018-12-29T05:50:54.140Z,15.50
2018-12-29T05:51:30.780Z,15.10
2018-12-29T05:52:07.393Z,16.65
2018-12-29T05:52:44.086Z,13.98
2018-12-29T05:53:20.445Z,14.50
2018-12-29T05:53:56.631Z,15.83
2018-12-29T05:54:33.262Z,14.58
2018-12-29T05:55:10.013Z,15.10
2018-12-29T05:55:46.801Z,16.05
2018-12-29T05:56:23.563Z,15.43
2018-12-29T05:56:59.949Z,13.28
2018-12-29T05:57:36.468Z,14.25
2018-12-29T05:58:13.123Z,14.47
2018-12-29T05:58:49.650Z,13.80
2018-12-29T05:59:26.169Z,14.58
2018-12-29T06:00:02.445Z,13.60
2018-12-29T06:00:39.253Z,15.10
2018-12-29T06:01:15.971Z,16.02
2018-12-29T06:01:52.309Z,14.55
2018-12-29T06:02:28.759Z,14.83
2018-12-29T06:03:04.980Z,14.30
2018-12-29T06:03:41.360Z,14.78
2018-12-29T06:04:17.689Z,13.98
2018-12-29T06:04:54.088Z,14.23
2018-12-29T06:05:30.670Z,15.43
2018-12-29T06:06:06.987Z,15.13
2018-12-29T06:06:43.325Z,14.33
2018-12-29T06:07:19.681Z,15.20
2018-12-29T06:07:56.289Z,14.70
2018-12-29T06:08:32.593Z,14.95
2018-12-29T06:09:09.138Z,15.40
2018-12-29T06:09:45.248Z,15.00
2018-12-29T06:10:21.948Z,14.90
2018-12-29T06:10:58.178Z,14.45
2018-12-29T06:11:34.840Z,14.70
2018-12-29T06:12:11.327Z,13.80
2018-12-29T06:12:47.905Z,15.30
2018-12-29T06:13:24.259Z,16.37
2018-12-29T06:14:00.668Z,16.82
2018-12-29T06:14:37.328Z,16.80
2018-12-29T06:15:13.517Z,14.30
2018-12-29T06:15:50.186Z,15.48
2018-12-29T06:16:27.794Z,16.32
2018-12-29T06:17:04.491Z,14.58
2018-12-29T06:17:41.187Z,14.00
2018-12-29T06:18:17.902Z,16.02
2018-12-29T06:18:54.452Z,15.72
2018-12-29T06:19:31.203Z,16.48
2018-12-29T06:20:07.797Z,15.32
2018-12-29T06:20:44.192Z,15.08
2018-12-29T06:21:20.673Z,13.60
2018-12-29T06:21:57.220Z,16.48
2018-12-29T06:22:33.966Z,15.63
2018-12-29T06:23:10.245Z,14.93
2018-12-29T06:23:46.669Z,14.58
2018-12-29T06:24:23.260Z,15.48
2018-12-29T06:24:59.850Z,14.65
2018-12-29T06:25:36.510Z,15.83
2018-12-29T06:26:12.831Z,15.35
2018-12-29T06:26:49.354Z,14.70
2018-12-29T06:27:25.826Z,14.25
2018-12-29T06:28:03.117Z,15.93
2018-12-29T06:28:39.585Z,14.85
2018-12-29T06:29:16.074Z,13.30
2018-12-29T06:29:52.937Z,14.87
2018-12-29T06:30:29.415Z,16.02
2018-12-29T06:31:05.876Z,15.40
2018-12-29T06:31:42.196Z,15.20
2018-12-29T06:32:18.478Z,15.95
2018-12-29T06:32:55.017Z,15.08
2018-12-29T06:33:31.337Z,16.20
2018-12-29T06:34:07.664Z,14.87
2018-12-29T06:34:44.446Z,15.10
2018-12-29T06:35:21.089Z,15.75
2018-12-29T06:35:57.308Z,14.93
2018-12-29T06:36:33.644Z,14.58
2018-12-29T06:37:10.032Z,16.25
2018-12-29T06:37:46.433Z,15.90
2018-12-29T06:38:22.368Z,14.70
2018-12-29T06:38:58.734Z,15.00
2018-12-29T06:39:35.354Z,16.23
2018-12-29T06:40:12.144Z,14.45
2018-12-29T06:40:48.817Z,14.83
2018-12-29T06:41:25.214Z,14.58
2018-12-29T06:42:01.717Z,17.17
2018-12-29T06:42:38.342Z,14.53
2018-12-29T06:43:14.933Z,16.02
2018-12-29T06:43:51.444Z,14.90
2018-12-29T06:44:28.043Z,15.23
2018-12-29T06:45:04.792Z,14.85
2018-12-29T06:45:41.422Z,15.63
2018-12-29T06:46:18.088Z,14.45
2018-12-29T06:46:54.749Z,16.12
2018-12-29T06:47:31.312Z,14.58
2018-12-29T06:48:07.502Z,13.53
2018-12-29T06:48:43.851Z,14.73
2018-12-29T06:49:20.493Z,13.55
2018-12-29T06:49:57.362Z,14.65
2018-12-29T06:50:33.886Z,15.93
2018-12-29T06:51:10.272Z,16.50
2018-12-29T06:51:46.704Z,14.05
2018-12-29T06:52:23.435Z,14.43
2018-12-29T06:53:00.151Z,14.60
2018-12-29T06:53:36.763Z,14.70
2018-12-29T06:54:13.560Z,15.90
2018-12-29T06:54:49.924Z,15.48
2018-12-29T06:55:26.584Z,15.88
2018-12-29T06:56:02.854Z,16.60
2018-12-29T06:56:39.574Z,16.93
2018-12-29T06:57:15.945Z,16.02
2018-12-29T06:57:52.539Z,15.70
2018-12-29T06:58:28.895Z,17.40
2018-12-29T06:59:05.530Z,16.32
2018-12-29T06:59:42.058Z,15.70
2018-12-29T07:00:18.529Z,16.57
2018-12-29T07:00:54.740Z,16.87
2018-12-29T07:01:31.311Z,15.78
2018-12-29T07:02:07.829Z,15.53
2018-12-29T07:02:44.481Z,15.00
2018-12-29T07:03:20.962Z,15.03
2018-12-29T07:03:57.711Z,15.78
2018-12-29T07:04:34.049Z,15.35
2018-12-29T07:05:10.670Z,15.68
2018-12-29T07:05:47.049Z,15.20
2018-12-29T07:06:23.390Z,15.28
2018-12-29T07:06:59.848Z,15.32
2018-12-29T07:07:36.527Z,14.18
2018-12-29T07:08:13.161Z,16.25
2018-12-29T07:08:49.947Z,15.75
2018-12-29T07:09:26.782Z,15.70
2018-12-29T07:10:03.059Z,15.60
2018-12-29T07:10:39.741Z,16.55
2018-12-29T07:11:16.102Z,15.65
2018-12-29T07:11:52.728Z,14.35
2018-12-29T07:12:29.369Z,18.35
2018-12-29T07:13:05.558Z,15.80
2018-12-29T07:13:42.037Z,14.25
2018-12-29T07:14:18.617Z,17.77
2018-12-29T07:14:55.055Z,14.80
2018-12-29T07:15:31.397Z,14.55
2018-12-29T07:16:07.938Z,14.53
2018-12-29T07:16:44.485Z,14.07
2018-12-29T07:17:20.908Z,15.28
2018-12-29T07:17:57.470Z,14.95
2018-12-29T07:18:34.120Z,15.93
2018-12-29T07:19:10.884Z,15.83
2018-12-29T07:19:47.354Z,14.53
2018-12-29T07:20:23.667Z,16.15
2018-12-29T07:21:00.123Z,14.80
2018-12-29T07:21:36.804Z,15.40
2018-12-29T07:22:13.082Z,16.62
2018-12-29T07:22:49.645Z,14.63
2018-12-29T07:23:26.310Z,15.55
2018-12-29T07:24:02.632Z,16.23
2018-12-29T07:24:39.449Z,15.70
2018-12-29T07:25:15.865Z,13.25
2018-12-29T07:25:52.572Z,16.70
2018-12-29T07:26:29.069Z,13.78
2018-12-29T07:27:05.579Z,16.25
2018-12-29T07:27:42.117Z,14.05
2018-12-29T07:28:18.380Z,15.45
2018-12-29T07:28:55.142Z,15.90
2018-12-29T07:29:38.068Z,14.95
2018-12-29T07:30:09.576Z,13.93
2018-12-29T07:30:46.896Z,16.37
2018-12-29T07:31:23.178Z,14.28
2018-12-29T07:31:59.437Z,14.28
2018-12-29T07:32:36.144Z,15.23
2018-12-29T07:33:12.518Z,15.65
2018-12-29T07:33:48.945Z,15.03
2018-12-29T07:34:25.635Z,13.18
2018-12-29T07:35:03.044Z,14.47
2018-12-29T07:35:39.850Z,15.48
2018-12-29T07:36:16.349Z,14.03
2018-12-29T07:36:52.951Z,15.72
2018-12-29T07:37:29.556Z,13.93
2018-12-29T07:38:06.152Z,16.15
2018-12-29T07:38:42.766Z,14.68
2018-12-29T07:39:19.393Z,15.30
2018-12-29T07:39:55.740Z,15.72
2018-12-29T07:40:32.582Z,14.40
2018-12-29T07:41:08.891Z,15.60
2018-12-29T07:41:45.172Z,15.43
2018-12-29T07:42:21.410Z,14.95
2018-12-29T07:42:57.812Z,16.73
2018-12-29T07:43:34.713Z,13.80
2018-12-29T07:44:10.812Z,15.25
2018-12-29T07:44:47.302Z,13.80
2018-12-29T07:45:24.211Z,14.80
2018-12-29T07:46:00.453Z,14.58
2018-12-29T07:46:36.651Z,13.13
2018-12-29T07:47:13.300Z,14.65
2018-12-29T07:47:49.701Z,14.85
2018-12-29T07:48:26.360Z,13.13
2018-12-29T07:49:02.528Z,15.60
2018-12-29T07:49:39.169Z,14.80
2018-12-29T07:50:15.818Z,13.60